sensor_id;sensor_type;location;lat;lon;timestamp;P1;durP1;ratioP1;P2;durP2;ratioP2
64395;SDS011;50717;53.360;6.290;2022-08-06T00:02:17;1.00;;;0.70;;
64395;SDS011;50717;53.360;6.290;2022-08-06T00:04:45;0.85;;;0.60;;
64395;SDS011;50717;53.360;6.290;2022-08-06T00:07:11;1.70;;;0.75;;
64395;SDS011;50717;53.360;6.290;2022-08-06T00:09:37;0.80;;;0.55;;
64395;SDS011;50717;53.360;6.290;2022-08-06T00:12:03;1.48;;;0.70;;
64395;SDS011;50717;53.360;6.290;2022-08-06T00:14:30;5.45;;;0.80;;
64395;SDS011;50717;53.360;6.290;2022-08-06T00:16:56;2.15;;;0.60;;
64395;SDS011;50717;53.360;6.290;2022-08-06T00:19:23;2.17;;;1.33;;
64395;SDS011;50717;53.360;6.290;2022-08-06T00:21:49;2.05;;;0.80;;
64395;SDS011;50717;53.360;6.290;2022-08-06T00:24:15;2.25;;;0.75;;
64395;SDS011;50717;53.360;6.290;2022-08-06T00:26:41;1.80;;;0.65;;
64395;SDS011;50717;53.360;6.290;2022-08-06T00:29:07;3.85;;;0.60;;
64395;SDS011;50717;53.360;6.290;2022-08-06T00:33:58;1.73;;;1.05;;
64395;SDS011;50717;53.360;6.290;2022-08-06T00:36:29;5.82;;;0.70;;
64395;SDS011;50717;53.360;6.290;2022-08-06T00:39:00;2.17;;;0.73;;
64395;SDS011;50717;53.360;6.290;2022-08-06T00:41:28;0.70;;;0.57;;
64395;SDS011;50717;53.360;6.290;2022-08-06T00:43:55;1.88;;;0.70;;
64395;SDS011;50717;53.360;6.290;2022-08-06T00:46:24;4.32;;;0.90;;
64395;SDS011;50717;53.360;6.290;2022-08-06T00:48:51;1.48;;;0.60;;
64395;SDS011;50717;53.360;6.290;2022-08-06T00:51:17;4.13;;;1.00;;
64395;SDS011;50717;53.360;6.290;2022-08-06T00:53:43;3.83;;;1.05;;
64395;SDS011;50717;53.360;6.290;2022-08-06T00:58:35;0.93;;;0.80;;
64395;SDS011;50717;53.360;6.290;2022-08-06T01:01:01;4.43;;;0.80;;
64395;SDS011;50717;53.360;6.290;2022-08-06T01:03:26;2.08;;;1.15;;
64395;SDS011;50717;53.360;6.290;2022-08-06T01:05:52;3.13;;;0.80;;
64395;SDS011;50717;53.360;6.290;2022-08-06T01:08:18;1.10;;;0.60;;
64395;SDS011;50717;53.360;6.290;2022-08-06T01:10:43;3.50;;;1.17;;
64395;SDS011;50717;53.360;6.290;2022-08-06T01:13:09;4.25;;;0.93;;
64395;SDS011;50717;53.360;6.290;2022-08-06T01:26:18;0.93;;;0.57;;
64395;SDS011;50717;53.360;6.290;2022-08-06T01:28:51;1.92;;;0.60;;
64395;SDS011;50717;53.360;6.290;2022-08-06T01:31:37;3.63;;;0.77;;
64395;SDS011;50717;53.360;6.290;2022-08-06T01:34:22;2.00;;;0.80;;
64395;SDS011;50717;53.360;6.290;2022-08-06T01:37:11;1.60;;;0.80;;
64395;SDS011;50717;53.360;6.290;2022-08-06T01:39:40;2.72;;;0.90;;
64395;SDS011;50717;53.360;6.290;2022-08-06T01:42:09;1.35;;;0.88;;
64395;SDS011;50717;53.360;6.290;2022-08-06T01:44:39;2.10;;;0.90;;
64395;SDS011;50717;53.360;6.290;2022-08-06T01:47:08;1.42;;;0.80;;
64395;SDS011;50717;53.360;6.290;2022-08-06T01:49:37;1.23;;;0.80;;
64395;SDS011;50717;53.360;6.290;2022-08-06T01:52:05;3.80;;;1.00;;
64395;SDS011;50717;53.360;6.290;2022-08-06T01:54:36;3.45;;;0.77;;
64395;SDS011;50717;53.360;6.290;2022-08-06T01:57:04;4.88;;;0.90;;
64395;SDS011;50717;53.360;6.290;2022-08-06T01:59:33;2.08;;;0.73;;
64395;SDS011;50717;53.360;6.290;2022-08-06T02:02:02;2.63;;;0.90;;
64395;SDS011;50717;53.360;6.290;2022-08-06T02:04:31;1.48;;;0.75;;
64395;SDS011;50717;53.360;6.290;2022-08-06T02:07:02;0.80;;;0.80;;
64395;SDS011;50717;53.360;6.290;2022-08-06T02:09:30;1.75;;;1.10;;
64395;SDS011;50717;53.360;6.290;2022-08-06T02:12:02;1.83;;;1.10;;
64395;SDS011;50717;53.360;6.290;2022-08-06T02:14:33;1.10;;;1.00;;
64395;SDS011;50717;53.360;6.290;2022-08-06T02:17:02;3.08;;;1.25;;
64395;SDS011;50717;53.360;6.290;2022-08-06T02:19:29;1.98;;;1.20;;
64395;SDS011;50717;53.360;6.290;2022-08-06T02:21:57;2.85;;;1.20;;
64395;SDS011;50717;53.360;6.290;2022-08-06T02:24:27;2.40;;;1.27;;
64395;SDS011;50717;53.360;6.290;2022-08-06T02:26:55;3.20;;;1.23;;
64395;SDS011;50717;53.360;6.290;2022-08-06T02:29:23;2.22;;;1.30;;
64395;SDS011;50717;53.360;6.290;2022-08-06T02:31:51;3.83;;;1.40;;
64395;SDS011;50717;53.360;6.290;2022-08-06T02:34:18;3.67;;;1.67;;
64395;SDS011;50717;53.360;6.290;2022-08-06T02:36:45;2.42;;;1.40;;
64395;SDS011;50717;53.360;6.290;2022-08-06T02:39:39;2.28;;;1.60;;
64395;SDS011;50717;53.360;6.290;2022-08-06T02:44:55;3.28;;;1.70;;
64395;SDS011;50717;53.360;6.290;2022-08-06T02:47:44;2.28;;;1.50;;
64395;SDS011;50717;53.360;6.290;2022-08-06T02:50:21;2.03;;;1.50;;
64395;SDS011;50717;53.360;6.290;2022-08-06T02:53:04;2.97;;;1.80;;
64395;SDS011;50717;53.360;6.290;2022-08-06T02:55:35;4.68;;;1.75;;
64395;SDS011;50717;53.360;6.290;2022-08-06T02:58:10;4.50;;;1.70;;
64395;SDS011;50717;53.360;6.290;2022-08-06T03:00:40;2.20;;;1.70;;
64395;SDS011;50717;53.360;6.290;2022-08-06T03:03:08;4.05;;;1.60;;
64395;SDS011;50717;53.360;6.290;2022-08-06T03:05:35;2.78;;;1.80;;
64395;SDS011;50717;53.360;6.290;2022-08-06T03:08:02;2.17;;;1.67;;
64395;SDS011;50717;53.360;6.290;2022-08-06T03:10:31;3.03;;;2.03;;
64395;SDS011;50717;53.360;6.290;2022-08-06T03:12:59;2.45;;;1.90;;
64395;SDS011;50717;53.360;6.290;2022-08-06T03:15:27;3.30;;;2.20;;
64395;SDS011;50717;53.360;6.290;2022-08-06T03:17:54;2.88;;;2.00;;
64395;SDS011;50717;53.360;6.290;2022-08-06T03:20:25;4.18;;;1.95;;
64395;SDS011;50717;53.360;6.290;2022-08-06T03:22:52;3.38;;;2.10;;
64395;SDS011;50717;53.360;6.290;2022-08-06T03:25:20;2.75;;;1.88;;
64395;SDS011;50717;53.360;6.290;2022-08-06T03:27:46;4.50;;;2.78;;
64395;SDS011;50717;53.360;6.290;2022-08-06T03:30:14;3.20;;;2.33;;
64395;SDS011;50717;53.360;6.290;2022-08-06T03:32:41;4.40;;;2.33;;
64395;SDS011;50717;53.360;6.290;2022-08-06T03:35:07;4.65;;;2.58;;
64395;SDS011;50717;53.360;6.290;2022-08-06T03:37:34;5.10;;;2.42;;
64395;SDS011;50717;53.360;6.290;2022-08-06T03:40:02;2.45;;;2.25;;
64395;SDS011;50717;53.360;6.290;2022-08-06T03:42:30;5.85;;;2.65;;
64395;SDS011;50717;53.360;6.290;2022-08-06T03:44:55;4.90;;;2.60;;
64395;SDS011;50717;53.360;6.290;2022-08-06T03:47:22;3.47;;;2.60;;
64395;SDS011;50717;53.360;6.290;2022-08-06T03:49:52;7.32;;;2.50;;
64395;SDS011;50717;53.360;6.290;2022-08-06T03:52:29;3.15;;;1.70;;
64395;SDS011;50717;53.360;6.290;2022-08-06T03:54:59;4.10;;;1.75;;
64395;SDS011;50717;53.360;6.290;2022-08-06T03:57:31;8.25;;;1.60;;
64395;SDS011;50717;53.360;6.290;2022-08-06T04:00:03;4.47;;;1.55;;
64395;SDS011;50717;53.360;6.290;2022-08-06T04:02:34;2.38;;;1.50;;
64395;SDS011;50717;53.360;6.290;2022-08-06T04:05:03;4.85;;;1.45;;
64395;SDS011;50717;53.360;6.290;2022-08-06T04:07:30;2.45;;;1.23;;
64395;SDS011;50717;53.360;6.290;2022-08-06T04:09:58;5.40;;;1.48;;
64395;SDS011;50717;53.360;6.290;2022-08-06T04:12:25;3.10;;;1.30;;
64395;SDS011;50717;53.360;6.290;2022-08-06T04:14:53;2.50;;;1.40;;
64395;SDS011;50717;53.360;6.290;2022-08-06T04:19:46;3.30;;;1.50;;
64395;SDS011;50717;53.360;6.290;2022-08-06T04:22:13;3.72;;;1.42;;
64395;SDS011;50717;53.360;6.290;2022-08-06T04:24:39;2.28;;;1.60;;
64395;SDS011;50717;53.360;6.290;2022-08-06T04:27:05;7.60;;;1.33;;
64395;SDS011;50717;53.360;6.290;2022-08-06T04:29:33;4.40;;;2.35;;
64395;SDS011;50717;53.360;6.290;2022-08-06T04:32:02;3.63;;;1.92;;
64395;SDS011;50717;53.360;6.290;2022-08-06T04:34:29;2.15;;;1.88;;
64395;SDS011;50717;53.360;6.290;2022-08-06T04:36:56;6.22;;;2.00;;
64395;SDS011;50717;53.360;6.290;2022-08-06T04:39:24;5.32;;;2.17;;
64395;SDS011;50717;53.360;6.290;2022-08-06T04:41:51;5.97;;;2.55;;
64395;SDS011;50717;53.360;6.290;2022-08-06T04:46:43;4.07;;;2.42;;
64395;SDS011;50717;53.360;6.290;2022-08-06T04:49:13;4.13;;;2.53;;
64395;SDS011;50717;53.360;6.290;2022-08-06T04:51:45;6.63;;;2.75;;
64395;SDS011;50717;53.360;6.290;2022-08-06T04:54:15;3.55;;;2.45;;
64395;SDS011;50717;53.360;6.290;2022-08-06T04:56:42;6.45;;;2.30;;
64395;SDS011;50717;53.360;6.290;2022-08-06T04:59:08;5.70;;;2.40;;
64395;SDS011;50717;53.360;6.290;2022-08-06T05:01:35;3.25;;;2.17;;
64395;SDS011;50717;53.360;6.290;2022-08-06T05:04:02;5.93;;;2.20;;
64395;SDS011;50717;53.360;6.290;2022-08-06T05:06:35;4.05;;;2.22;;
64395;SDS011;50717;53.360;6.290;2022-08-06T05:09:22;4.22;;;2.30;;
64395;SDS011;50717;53.360;6.290;2022-08-06T05:12:13;2.83;;;2.40;;
64395;SDS011;50717;53.360;6.290;2022-08-06T05:14:55;7.28;;;2.30;;
64395;SDS011;50717;53.360;6.290;2022-08-06T05:17:25;2.88;;;2.25;;
64395;SDS011;50717;53.360;6.290;2022-08-06T05:19:57;5.13;;;2.20;;
64395;SDS011;50717;53.360;6.290;2022-08-06T05:22:27;5.53;;;3.08;;
64395;SDS011;50717;53.360;6.290;2022-08-06T05:24:53;5.20;;;2.53;;
64395;SDS011;50717;53.360;6.290;2022-08-06T05:27:20;2.90;;;2.45;;
64395;SDS011;50717;53.360;6.290;2022-08-06T05:29:46;5.63;;;2.50;;
64395;SDS011;50717;53.360;6.290;2022-08-06T05:32:12;3.85;;;2.40;;
64395;SDS011;50717;53.360;6.290;2022-08-06T05:34:38;5.35;;;2.17;;
64395;SDS011;50717;53.360;6.290;2022-08-06T05:37:03;5.80;;;2.58;;
64395;SDS011;50717;53.360;6.290;2022-08-06T05:39:29;4.72;;;2.75;;
64395;SDS011;50717;53.360;6.290;2022-08-06T05:41:55;6.15;;;2.75;;
64395;SDS011;50717;53.360;6.290;2022-08-06T05:44:21;6.03;;;2.40;;
64395;SDS011;50717;53.360;6.290;2022-08-06T05:46:51;2.20;;;2.00;;
64395;SDS011;50717;53.360;6.290;2022-08-06T05:49:25;6.93;;;2.50;;
64395;SDS011;50717;53.360;6.290;2022-08-06T05:54:41;2.63;;;2.42;;
64395;SDS011;50717;53.360;6.290;2022-08-06T05:57:12;4.03;;;2.42;;
64395;SDS011;50717;53.360;6.290;2022-08-06T05:59:50;5.32;;;2.53;;
64395;SDS011;50717;53.360;6.290;2022-08-06T06:02:21;5.90;;;2.60;;
64395;SDS011;50717;53.360;6.290;2022-08-06T06:04:48;5.95;;;2.50;;
64395;SDS011;50717;53.360;6.290;2022-08-06T06:07:15;3.78;;;2.33;;
64395;SDS011;50717;53.360;6.290;2022-08-06T06:12:08;6.30;;;2.83;;
64395;SDS011;50717;53.360;6.290;2022-08-06T06:14:38;5.97;;;2.65;;
64395;SDS011;50717;53.360;6.290;2022-08-06T06:22:59;4.70;;;1.90;;
64395;SDS011;50717;53.360;6.290;2022-08-06T06:25:40;5.65;;;2.17;;
64395;SDS011;50717;53.360;6.290;2022-08-06T06:30:59;5.38;;;2.08;;
64395;SDS011;50717;53.360;6.290;2022-08-06T06:39:07;6.20;;;2.25;;
64395;SDS011;50717;53.360;6.290;2022-08-06T06:41:43;3.15;;;2.00;;
64395;SDS011;50717;53.360;6.290;2022-08-06T06:47:01;8.50;;;2.00;;
64395;SDS011;50717;53.360;6.290;2022-08-06T06:49:37;4.30;;;1.60;;
64395;SDS011;50717;53.360;6.290;2022-08-06T06:52:13;4.40;;;1.60;;
64395;SDS011;50717;53.360;6.290;2022-08-06T06:54:47;2.40;;;1.60;;
64395;SDS011;50717;53.360;6.290;2022-08-06T06:57:19;3.95;;;1.92;;
64395;SDS011;50717;53.360;6.290;2022-08-06T06:59:48;3.40;;;1.73;;
64395;SDS011;50717;53.360;6.290;2022-08-06T07:02:19;3.65;;;1.80;;
64395;SDS011;50717;53.360;6.290;2022-08-06T07:04:49;2.40;;;1.85;;
64395;SDS011;50717;53.360;6.290;2022-08-06T07:07:17;6.75;;;1.58;;
64395;SDS011;50717;53.360;6.290;2022-08-06T07:09:44;3.17;;;1.65;;
64395;SDS011;50717;53.360;6.290;2022-08-06T07:12:11;3.10;;;1.50;;
64395;SDS011;50717;53.360;6.290;2022-08-06T07:14:39;4.90;;;1.63;;
64395;SDS011;50717;53.360;6.290;2022-08-06T07:17:06;2.67;;;1.20;;
64395;SDS011;50717;53.360;6.290;2022-08-06T07:19:33;4.72;;;1.30;;
64395;SDS011;50717;53.360;6.290;2022-08-06T07:22:00;2.53;;;1.25;;
64395;SDS011;50717;53.360;6.290;2022-08-06T07:24:27;3.13;;;1.48;;
64395;SDS011;50717;53.360;6.290;2022-08-06T07:26:56;3.60;;;1.45;;
64395;SDS011;50717;53.360;6.290;2022-08-06T07:29:23;4.05;;;1.05;;
64395;SDS011;50717;53.360;6.290;2022-08-06T07:31:50;3.25;;;1.13;;
64395;SDS011;50717;53.360;6.290;2022-08-06T07:34:17;4.63;;;1.10;;
64395;SDS011;50717;53.360;6.290;2022-08-06T07:36:48;1.65;;;1.05;;
64395;SDS011;50717;53.360;6.290;2022-08-06T07:39:26;13.55;;;3.38;;
64395;SDS011;50717;53.360;6.290;2022-08-06T07:41:54;3.50;;;1.00;;
64395;SDS011;50717;53.360;6.290;2022-08-06T07:44:22;2.95;;;1.10;;
64395;SDS011;50717;53.360;6.290;2022-08-06T07:46:50;3.03;;;1.30;;
64395;SDS011;50717;53.360;6.290;2022-08-06T07:49:21;4.05;;;1.55;;
64395;SDS011;50717;53.360;6.290;2022-08-06T07:51:49;3.47;;;1.25;;
64395;SDS011;50717;53.360;6.290;2022-08-06T07:54:17;6.95;;;1.73;;
64395;SDS011;50717;53.360;6.290;2022-08-06T07:56:44;3.95;;;1.65;;
64395;SDS011;50717;53.360;6.290;2022-08-06T07:59:11;3.25;;;1.50;;
64395;SDS011;50717;53.360;6.290;2022-08-06T08:01:37;2.85;;;1.58;;
64395;SDS011;50717;53.360;6.290;2022-08-06T08:04:04;4.55;;;1.88;;
64395;SDS011;50717;53.360;6.290;2022-08-06T08:06:50;3.43;;;1.20;;
64395;SDS011;50717;53.360;6.290;2022-08-06T08:09:21;3.92;;;1.42;;
64395;SDS011;50717;53.360;6.290;2022-08-06T08:11:49;5.25;;;1.58;;
64395;SDS011;50717;53.360;6.290;2022-08-06T08:14:18;6.07;;;1.60;;
64395;SDS011;50717;53.360;6.290;2022-08-06T08:16:46;2.50;;;1.40;;
64395;SDS011;50717;53.360;6.290;2022-08-06T08:19:22;3.65;;;1.60;;
64395;SDS011;50717;53.360;6.290;2022-08-06T08:21:53;4.05;;;1.50;;
64395;SDS011;50717;53.360;6.290;2022-08-06T08:24:21;4.32;;;1.50;;
64395;SDS011;50717;53.360;6.290;2022-08-06T08:26:48;4.15;;;1.40;;
64395;SDS011;50717;53.360;6.290;2022-08-06T08:29:14;4.25;;;1.83;;
64395;SDS011;50717;53.360;6.290;2022-08-06T08:34:06;4.28;;;1.48;;
64395;SDS011;50717;53.360;6.290;2022-08-06T08:36:32;4.38;;;1.60;;
64395;SDS011;50717;53.360;6.290;2022-08-06T08:38:58;4.32;;;2.08;;
64395;SDS011;50717;53.360;6.290;2022-08-06T08:41:28;3.08;;;1.70;;
64395;SDS011;50717;53.360;6.290;2022-08-06T08:44:05;6.32;;;1.90;;
64395;SDS011;50717;53.360;6.290;2022-08-06T08:46:32;3.17;;;1.70;;
64395;SDS011;50717;53.360;6.290;2022-08-06T08:49:12;3.85;;;1.55;;
64395;SDS011;50717;53.360;6.290;2022-08-06T08:51:44;2.53;;;1.50;;
64395;SDS011;50717;53.360;6.290;2022-08-06T08:54:13;4.03;;;1.90;;
64395;SDS011;50717;53.360;6.290;2022-08-06T08:56:42;6.78;;;1.80;;
64395;SDS011;50717;53.360;6.290;2022-08-06T08:59:09;5.72;;;1.95;;
64395;SDS011;50717;53.360;6.290;2022-08-06T09:01:35;4.03;;;1.65;;
64395;SDS011;50717;53.360;6.290;2022-08-06T09:04:02;5.70;;;2.00;;
64395;SDS011;50717;53.360;6.290;2022-08-06T09:06:29;4.18;;;1.80;;
64395;SDS011;50717;53.360;6.290;2022-08-06T09:08:57;4.00;;;1.77;;
64395;SDS011;50717;53.360;6.290;2022-08-06T09:11:32;4.63;;;2.00;;
64395;SDS011;50717;53.360;6.290;2022-08-06T09:14:00;4.40;;;1.95;;
64395;SDS011;50717;53.360;6.290;2022-08-06T09:16:34;3.97;;;1.80;;
64395;SDS011;50717;53.360;6.290;2022-08-06T09:19:01;4.03;;;1.90;;
64395;SDS011;50717;53.360;6.290;2022-08-06T09:21:30;4.55;;;1.65;;
64395;SDS011;50717;53.360;6.290;2022-08-06T09:23:56;4.60;;;1.90;;
64395;SDS011;50717;53.360;6.290;2022-08-06T09:26:23;3.50;;;1.95;;
64395;SDS011;50717;53.360;6.290;2022-08-06T09:28:48;3.90;;;1.80;;
64395;SDS011;50717;53.360;6.290;2022-08-06T09:31:15;3.83;;;2.10;;
64395;SDS011;50717;53.360;6.290;2022-08-06T09:34:05;3.70;;;1.60;;
64395;SDS011;50717;53.360;6.290;2022-08-06T09:36:42;4.75;;;2.22;;
64395;SDS011;50717;53.360;6.290;2022-08-06T09:39:10;6.15;;;2.35;;
64395;SDS011;50717;53.360;6.290;2022-08-06T09:41:46;4.78;;;1.92;;
64395;SDS011;50717;53.360;6.290;2022-08-06T09:44:12;3.78;;;2.13;;
64395;SDS011;50717;53.360;6.290;2022-08-06T09:46:43;2.97;;;1.95;;
64395;SDS011;50717;53.360;6.290;2022-08-06T09:49:11;4.10;;;2.40;;
64395;SDS011;50717;53.360;6.290;2022-08-06T09:51:38;2.95;;;2.15;;
64395;SDS011;50717;53.360;6.290;2022-08-06T09:54:06;2.55;;;2.10;;
64395;SDS011;50717;53.360;6.290;2022-08-06T09:56:38;6.88;;;2.30;;
64395;SDS011;50717;53.360;6.290;2022-08-06T09:59:05;4.47;;;1.90;;
64395;SDS011;50717;53.360;6.290;2022-08-06T10:04:29;3.00;;;2.10;;
64395;SDS011;50717;53.360;6.290;2022-08-06T10:06:55;3.50;;;2.30;;
64395;SDS011;50717;53.360;6.290;2022-08-06T10:09:23;5.35;;;2.53;;
64395;SDS011;50717;53.360;6.290;2022-08-06T10:11:50;4.55;;;2.30;;
64395;SDS011;50717;53.360;6.290;2022-08-06T10:14:34;3.42;;;2.45;;
64395;SDS011;50717;53.360;6.290;2022-08-06T10:17:11;4.88;;;2.72;;
64395;SDS011;50717;53.360;6.290;2022-08-06T10:19:37;5.18;;;2.60;;
64395;SDS011;50717;53.360;6.290;2022-08-06T10:22:07;3.78;;;2.50;;
64395;SDS011;50717;53.360;6.290;2022-08-06T10:24:38;3.35;;;2.65;;
64395;SDS011;50717;53.360;6.290;2022-08-06T10:27:06;4.60;;;2.67;;
64395;SDS011;50717;53.360;6.290;2022-08-06T10:29:40;4.22;;;3.10;;
64395;SDS011;50717;53.360;6.290;2022-08-06T10:32:07;4.63;;;2.47;;
64395;SDS011;50717;53.360;6.290;2022-08-06T10:34:36;5.05;;;2.63;;
64395;SDS011;50717;53.360;6.290;2022-08-06T10:37:04;4.25;;;2.70;;
64395;SDS011;50717;53.360;6.290;2022-08-06T10:39:33;3.88;;;2.70;;
64395;SDS011;50717;53.360;6.290;2022-08-06T10:42:03;6.38;;;3.00;;
64395;SDS011;50717;53.360;6.290;2022-08-06T10:44:30;3.47;;;2.97;;
64395;SDS011;50717;53.360;6.290;2022-08-06T10:46:56;5.03;;;2.90;;
64395;SDS011;50717;53.360;6.290;2022-08-06T10:49:23;5.82;;;2.90;;
64395;SDS011;50717;53.360;6.290;2022-08-06T10:51:51;4.78;;;2.90;;
64395;SDS011;50717;53.360;6.290;2022-08-06T10:54:18;3.55;;;2.80;;
64395;SDS011;50717;53.360;6.290;2022-08-06T10:56:47;4.20;;;2.90;;
64395;SDS011;50717;53.360;6.290;2022-08-06T10:59:14;4.78;;;3.22;;
64395;SDS011;50717;53.360;6.290;2022-08-06T11:01:52;5.47;;;3.00;;
64395;SDS011;50717;53.360;6.290;2022-08-06T11:13:21;4.75;;;2.75;;
64395;SDS011;50717;53.360;6.290;2022-08-06T11:15:55;5.07;;;3.28;;
64395;SDS011;50717;53.360;6.290;2022-08-06T11:18:21;5.00;;;3.22;;
64395;SDS011;50717;53.360;6.290;2022-08-06T11:20:48;4.00;;;3.35;;
64395;SDS011;50717;53.360;6.290;2022-08-06T11:25:47;5.00;;;3.30;;
64395;SDS011;50717;53.360;6.290;2022-08-06T11:30:57;5.40;;;3.70;;
64395;SDS011;50717;53.360;6.290;2022-08-06T11:36:00;5.10;;;3.10;;
64395;SDS011;50717;53.360;6.290;2022-08-06T11:54:13;3.42;;;2.92;;
64395;SDS011;50717;53.360;6.290;2022-08-06T11:59:29;3.97;;;3.58;;
64395;SDS011;50717;53.360;6.290;2022-08-06T12:01:56;4.13;;;3.00;;
64395;SDS011;50717;53.360;6.290;2022-08-06T12:09:46;4.70;;;3.25;;
64395;SDS011;50717;53.360;6.290;2022-08-06T12:17:37;5.13;;;3.22;;
64395;SDS011;50717;53.360;6.290;2022-08-06T12:20:07;4.30;;;2.90;;
64395;SDS011;50717;53.360;6.290;2022-08-06T12:22:34;4.03;;;2.67;;
64395;SDS011;50717;53.360;6.290;2022-08-06T12:25:03;5.00;;;2.92;;
64395;SDS011;50717;53.360;6.290;2022-08-06T12:27:32;4.38;;;3.30;;
64395;SDS011;50717;53.360;6.290;2022-08-06T12:29:59;3.85;;;2.45;;
64395;SDS011;50717;53.360;6.290;2022-08-06T12:32:27;5.40;;;2.80;;
64395;SDS011;50717;53.360;6.290;2022-08-06T12:34:54;3.85;;;2.47;;
64395;SDS011;50717;53.360;6.290;2022-08-06T12:37:31;3.00;;;2.65;;
64395;SDS011;50717;53.360;6.290;2022-08-06T12:40:08;3.28;;;2.75;;
64395;SDS011;50717;53.360;6.290;2022-08-06T12:45:28;2.83;;;2.53;;
64395;SDS011;50717;53.360;6.290;2022-08-06T12:47:58;3.65;;;2.88;;
64395;SDS011;50717;53.360;6.290;2022-08-06T12:50:25;4.07;;;2.58;;
64395;SDS011;50717;53.360;6.290;2022-08-06T12:55:42;4.07;;;2.83;;
64395;SDS011;50717;53.360;6.290;2022-08-06T12:58:10;3.42;;;2.47;;
64395;SDS011;50717;53.360;6.290;2022-08-06T13:00:39;4.57;;;2.63;;
64395;SDS011;50717;53.360;6.290;2022-08-06T13:03:06;3.85;;;2.53;;
64395;SDS011;50717;53.360;6.290;2022-08-06T13:05:34;3.30;;;2.33;;
64395;SDS011;50717;53.360;6.290;2022-08-06T13:08:00;3.45;;;2.00;;
64395;SDS011;50717;53.360;6.290;2022-08-06T13:10:27;5.47;;;2.20;;
64395;SDS011;50717;53.360;6.290;2022-08-06T13:12:56;4.78;;;2.45;;
64395;SDS011;50717;53.360;6.290;2022-08-06T13:15:26;5.47;;;2.88;;
64395;SDS011;50717;53.360;6.290;2022-08-06T13:18:06;2.38;;;2.00;;
64395;SDS011;50717;53.360;6.290;2022-08-06T13:20:48;4.43;;;2.10;;
64395;SDS011;50717;53.360;6.290;2022-08-06T13:23:26;3.90;;;2.38;;
64395;SDS011;50717;53.360;6.290;2022-08-06T13:25:57;3.42;;;2.40;;
64395;SDS011;50717;53.360;6.290;2022-08-06T13:28:24;4.05;;;2.65;;
64395;SDS011;50717;53.360;6.290;2022-08-06T13:30:50;3.28;;;2.20;;
64395;SDS011;50717;53.360;6.290;2022-08-06T13:33:23;3.17;;;2.40;;
64395;SDS011;50717;53.360;6.290;2022-08-06T13:36:03;2.83;;;2.10;;
64395;SDS011;50717;53.360;6.290;2022-08-06T13:38:31;5.38;;;2.40;;
64395;SDS011;50717;53.360;6.290;2022-08-06T13:40:58;4.43;;;2.10;;
64395;SDS011;50717;53.360;6.290;2022-08-06T13:43:38;9.73;;;2.88;;
64395;SDS011;50717;53.360;6.290;2022-08-06T13:46:08;23.63;;;3.65;;
64395;SDS011;50717;53.360;6.290;2022-08-06T13:48:42;30.25;;;4.50;;
64395;SDS011;50717;53.360;6.290;2022-08-06T13:51:11;4.65;;;2.35;;
64395;SDS011;50717;53.360;6.290;2022-08-06T13:53:38;7.40;;;2.47;;
64395;SDS011;50717;53.360;6.290;2022-08-06T13:56:04;9.02;;;2.17;;
64395;SDS011;50717;53.360;6.290;2022-08-06T13:58:30;3.28;;;2.20;;
64395;SDS011;50717;53.360;6.290;2022-08-06T14:00:56;4.07;;;2.20;;
64395;SDS011;50717;53.360;6.290;2022-08-06T14:03:22;4.15;;;2.17;;
64395;SDS011;50717;53.360;6.290;2022-08-06T14:05:50;3.35;;;2.30;;
64395;SDS011;50717;53.360;6.290;2022-08-06T14:08:16;3.85;;;2.25;;
64395;SDS011;50717;53.360;6.290;2022-08-06T14:10:41;6.55;;;2.03;;
64395;SDS011;50717;53.360;6.290;2022-08-06T14:13:07;3.75;;;1.80;;
64395;SDS011;50717;53.360;6.290;2022-08-06T14:15:46;3.30;;;2.13;;
64395;SDS011;50717;53.360;6.290;2022-08-06T14:18:14;3.83;;;2.08;;
64395;SDS011;50717;53.360;6.290;2022-08-06T14:20:40;4.82;;;2.38;;
64395;SDS011;50717;53.360;6.290;2022-08-06T14:23:06;3.38;;;2.13;;
64395;SDS011;50717;53.360;6.290;2022-08-06T14:25:32;5.15;;;2.20;;
64395;SDS011;50717;53.360;6.290;2022-08-06T14:27:58;11.13;;;2.92;;
64395;SDS011;50717;53.360;6.290;2022-08-06T14:30:24;3.38;;;2.40;;
64395;SDS011;50717;53.360;6.290;2022-08-06T14:32:50;3.65;;;1.92;;
64395;SDS011;50717;53.360;6.290;2022-08-06T14:35:16;4.53;;;2.17;;
64395;SDS011;50717;53.360;6.290;2022-08-06T14:37:42;3.95;;;1.80;;
64395;SDS011;50717;53.360;6.290;2022-08-06T14:40:09;3.35;;;2.10;;
64395;SDS011;50717;53.360;6.290;2022-08-06T14:42:35;10.65;;;2.35;;
64395;SDS011;50717;53.360;6.290;2022-08-06T14:45:20;5.07;;;2.25;;
64395;SDS011;50717;53.360;6.290;2022-08-06T14:47:46;3.65;;;2.00;;
64395;SDS011;50717;53.360;6.290;2022-08-06T14:50:12;4.60;;;2.00;;
64395;SDS011;50717;53.360;6.290;2022-08-06T14:52:38;6.25;;;2.33;;
64395;SDS011;50717;53.360;6.290;2022-08-06T14:55:06;3.17;;;1.98;;
64395;SDS011;50717;53.360;6.290;2022-08-06T14:57:32;4.22;;;2.17;;
64395;SDS011;50717;53.360;6.290;2022-08-06T15:00:00;50.95;;;4.88;;
64395;SDS011;50717;53.360;6.290;2022-08-06T15:02:26;21.73;;;3.95;;
64395;SDS011;50717;53.360;6.290;2022-08-06T15:04:52;5.85;;;2.40;;
64395;SDS011;50717;53.360;6.290;2022-08-06T15:07:19;5.38;;;2.30;;
64395;SDS011;50717;53.360;6.290;2022-08-06T15:09:45;6.18;;;2.17;;
64395;SDS011;50717;53.360;6.290;2022-08-06T15:12:11;2.88;;;2.28;;
64395;SDS011;50717;53.360;6.290;2022-08-06T15:14:37;3.08;;;2.40;;
64395;SDS011;50717;53.360;6.290;2022-08-06T15:17:03;3.20;;;1.98;;
64395;SDS011;50717;53.360;6.290;2022-08-06T15:19:28;3.60;;;2.20;;
64395;SDS011;50717;53.360;6.290;2022-08-06T15:21:54;3.65;;;2.20;;
64395;SDS011;50717;53.360;6.290;2022-08-06T15:24:20;3.03;;;2.13;;
64395;SDS011;50717;53.360;6.290;2022-08-06T15:26:46;4.65;;;2.30;;
64395;SDS011;50717;53.360;6.290;2022-08-06T15:29:11;3.22;;;2.20;;
64395;SDS011;50717;53.360;6.290;2022-08-06T15:31:38;7.78;;;2.63;;
64395;SDS011;50717;53.360;6.290;2022-08-06T15:34:04;8.25;;;2.80;;
64395;SDS011;50717;53.360;6.290;2022-08-06T15:36:30;7.90;;;2.47;;
64395;SDS011;50717;53.360;6.290;2022-08-06T15:38:56;3.55;;;2.00;;
64395;SDS011;50717;53.360;6.290;2022-08-06T15:41:22;8.30;;;2.92;;
64395;SDS011;50717;53.360;6.290;2022-08-06T15:43:51;3.72;;;2.17;;
64395;SDS011;50717;53.360;6.290;2022-08-06T15:46:17;2.63;;;1.90;;
64395;SDS011;50717;53.360;6.290;2022-08-06T15:48:44;3.33;;;2.08;;
64395;SDS011;50717;53.360;6.290;2022-08-06T15:51:10;7.22;;;2.42;;
64395;SDS011;50717;53.360;6.290;2022-08-06T15:53:36;15.23;;;2.67;;
64395;SDS011;50717;53.360;6.290;2022-08-06T15:56:01;12.15;;;3.15;;
64395;SDS011;50717;53.360;6.290;2022-08-06T15:58:27;6.00;;;2.30;;
64395;SDS011;50717;53.360;6.290;2022-08-06T16:00:53;17.88;;;2.88;;
64395;SDS011;50717;53.360;6.290;2022-08-06T16:03:19;3.63;;;2.20;;
64395;SDS011;50717;53.360;6.290;2022-08-06T16:05:44;26.60;;;3.13;;
64395;SDS011;50717;53.360;6.290;2022-08-06T16:08:11;5.18;;;2.22;;
64395;SDS011;50717;53.360;6.290;2022-08-06T16:10:45;4.97;;;2.10;;
64395;SDS011;50717;53.360;6.290;2022-08-06T16:13:12;2.85;;;2.35;;
64395;SDS011;50717;53.360;6.290;2022-08-06T16:15:49;10.13;;;2.25;;
64395;SDS011;50717;53.360;6.290;2022-08-06T16:18:16;8.48;;;2.50;;
64395;SDS011;50717;53.360;6.290;2022-08-06T16:20:43;4.53;;;2.25;;
64395;SDS011;50717;53.360;6.290;2022-08-06T16:23:09;13.07;;;2.90;;
64395;SDS011;50717;53.360;6.290;2022-08-06T16:25:36;2.53;;;2.20;;
64395;SDS011;50717;53.360;6.290;2022-08-06T16:28:02;4.72;;;1.90;;
64395;SDS011;50717;53.360;6.290;2022-08-06T16:30:28;4.15;;;2.53;;
64395;SDS011;50717;53.360;6.290;2022-08-06T16:32:54;3.85;;;2.10;;
64395;SDS011;50717;53.360;6.290;2022-08-06T16:35:21;2.90;;;2.42;;
64395;SDS011;50717;53.360;6.290;2022-08-06T16:37:47;9.38;;;2.40;;
64395;SDS011;50717;53.360;6.290;2022-08-06T16:40:14;20.55;;;3.15;;
64395;SDS011;50717;53.360;6.290;2022-08-06T16:42:40;39.55;;;4.22;;